sensor_id;sensor_type;location;lat;lon;timestamp;pressure;altitude;pressure_sealevel;temperature;humidity
19751;BME280;4663;49.120;9.730;2023-02-28T00:00:30;98807.16;;;-6.31;69.65
19751;BME280;4663;49.120;9.730;2023-02-28T00:02:56;98808.09;;;-6.32;70.02
19751;BME280;4663;49.120;9.730;2023-02-28T00:05:23;98803.06;;;-6.39;69.88
19751;BME280;4663;49.120;9.730;2023-02-28T00:07:50;98804.34;;;-6.27;69.55
19751;BME280;4663;49.120;9.730;2023-02-28T00:10:18;98804.09;;;-6.43;69.95
19751;BME280;4663;49.120;9.730;2023-02-28T00:12:49;98801.78;;;-6.28;69.61
19751;BME280;4663;49.120;9.730;2023-02-28T00:15:15;98803.53;;;-6.51;69.99
19751;BME280;4663;49.120;9.730;2023-02-28T00:17:41;98806.97;;;-6.51;70.37
19751;BME280;4663;49.120;9.730;2023-02-28T00:20:07;98802.13;;;-6.38;70.00
19751;BME280;4663;49.120;9.730;2023-02-28T00:22:33;98811.03;;;-6.42;70.00
19751;BME280;4663;49.120;9.730;2023-02-28T00:24:59;98794.00;;;-6.31;70.15
19751;BME280;4663;49.120;9.730;2023-02-28T00:27:24;98804.31;;;-6.49;70.43
19751;BME280;4663;49.120;9.730;2023-02-28T00:29:49;98797.56;;;-6.32;70.14
19751;BME280;4663;49.120;9.730;2023-02-28T00:32:15;98815.16;;;-6.58;70.94
19751;BME280;4663;49.120;9.730;2023-02-28T00:34:40;98815.06;;;-6.79;71.15
19751;BME280;4663;49.120;9.730;2023-02-28T00:37:07;98807.59;;;-6.66;71.04
19751;BME280;4663;49.120;9.730;2023-02-28T00:39:35;98817.91;;;-6.38;70.98
19751;BME280;4663;49.120;9.730;2023-02-28T00:42:01;98811.72;;;-6.60;71.28
19751;BME280;4663;49.120;9.730;2023-02-28T00:44:27;98809.69;;;-6.52;70.84
19751;BME280;4663;49.120;9.730;2023-02-28T00:46:53;98811.28;;;-6.48;70.89
19751;BME280;4663;49.120;9.730;2023-02-28T00:49:19;98816.47;;;-6.70;71.43
19751;BME280;4663;49.120;9.730;2023-02-28T00:51:45;98805.13;;;-6.71;71.29
19751;BME280;4663;49.120;9.730;2023-02-28T00:54:11;98807.44;;;-6.63;71.62
19751;BME280;4663;49.120;9.730;2023-02-28T00:56:36;98806.47;;;-6.84;72.39
19751;BME280;4663;49.120;9.730;2023-02-28T00:59:01;98816.88;;;-6.57;72.79
19751;BME280;4663;49.120;9.730;2023-02-28T01:01:27;98810.28;;;-6.68;72.47
19751;BME280;4663;49.120;9.730;2023-02-28T01:03:52;98798.84;;;-6.67;72.57
19751;BME280;4663;49.120;9.730;2023-02-28T01:06:18;98799.03;;;-6.49;72.05
19751;BME280;4663;49.120;9.730;2023-02-28T01:08:43;98796.72;;;-6.57;71.94
19751;BME280;4663;49.120;9.730;2023-02-28T01:11:10;98805.00;;;-6.68;72.45
19751;BME280;4663;49.120;9.730;2023-02-28T01:13:37;98800.78;;;-6.72;72.68
19751;BME280;4663;49.120;9.730;2023-02-28T01:16:02;98793.22;;;-6.57;72.30
19751;BME280;4663;49.120;9.730;2023-02-28T01:18:28;98803.09;;;-6.88;72.50
19751;BME280;4663;49.120;9.730;2023-02-28T01:20:53;98797.16;;;-6.93;73.21
19751;BME280;4663;49.120;9.730;2023-02-28T01:23:20;98801.91;;;-6.79;73.53
19751;BME280;4663;49.120;9.730;2023-02-28T01:25:46;98799.97;;;-6.74;73.35
19751;BME280;4663;49.120;9.730;2023-02-28T01:28:12;98792.75;;;-6.69;72.70
19751;BME280;4663;49.120;9.730;2023-02-28T01:30:37;98792.75;;;-6.69;73.01
19751;BME280;4663;49.120;9.730;2023-02-28T01:33:03;98791.81;;;-6.66;72.90
19751;BME280;4663;49.120;9.730;2023-02-28T01:35:28;98790.84;;;-6.88;73.50
19751;BME280;4663;49.120;9.730;2023-02-28T01:37:53;98789.81;;;-6.83;73.43
19751;BME280;4663;49.120;9.730;2023-02-28T01:40:19;98790.25;;;-6.96;73.79
19751;BME280;4663;49.120;9.730;2023-02-28T01:42:44;98793.00;;;-6.99;74.23
19751;BME280;4663;49.120;9.730;2023-02-28T01:45:30;98784.66;;;-6.86;73.38
19751;BME280;4663;49.120;9.730;2023-02-28T01:48:00;98791.97;;;-6.71;73.47
19751;BME280;4663;49.120;9.730;2023-02-28T01:50:30;98791.63;;;-6.85;73.80
19751;BME280;4663;49.120;9.730;2023-02-28T01:52:59;98784.56;;;-6.59;73.08
19751;BME280;4663;49.120;9.730;2023-02-28T01:55:28;98783.16;;;-6.94;73.44
19751;BME280;4663;49.120;9.730;2023-02-28T01:57:57;98780.19;;;-7.08;74.35
19751;BME280;4663;49.120;9.730;2023-02-28T02:00:25;98783.84;;;-6.89;74.08
19751;BME280;4663;49.120;9.730;2023-02-28T02:02:54;98778.22;;;-6.78;73.47
19751;BME280;4663;49.120;9.730;2023-02-28T02:05:24;98767.53;;;-6.97;74.18
19751;BME280;4663;49.120;9.730;2023-02-28T02:07:54;98780.13;;;-6.83;74.12
19751;BME280;4663;49.120;9.730;2023-02-28T02:10:45;98769.19;;;-6.70;73.94
19751;BME280;4663;49.120;9.730;2023-02-28T02:36:21;98769.47;;;-6.78;74.31
19751;BME280;4663;49.120;9.730;2023-02-28T02:38:56;98759.19;;;-6.60;73.93
19751;BME280;4663;49.120;9.730;2023-02-28T02:46:47;98771.16;;;-7.01;75.04
19751;BME280;4663;49.120;9.730;2023-02-28T02:49:18;98767.66;;;-7.00;75.44
19751;BME280;4663;49.120;9.730;2023-02-28T02:51:46;98768.03;;;-6.87;75.10
19751;BME280;4663;49.120;9.730;2023-02-28T02:54:28;98761.75;;;-6.83;74.26
19751;BME280;4663;49.120;9.730;2023-02-28T02:57:00;98765.16;;;-6.79;75.13
19751;BME280;4663;49.120;9.730;2023-02-28T02:59:28;98766.13;;;-6.82;75.30
19751;BME280;4663;49.120;9.730;2023-02-28T03:02:00;98761.50;;;-6.75;75.02
19751;BME280;4663;49.120;9.730;2023-02-28T03:04:32;98759.03;;;-6.80;74.58
19751;BME280;4663;49.120;9.730;2023-02-28T03:06:58;98758.91;;;-6.77;74.23
19751;BME280;4663;49.120;9.730;2023-02-28T03:09:25;98762.41;;;-7.00;74.39
19751;BME280;4663;49.120;9.730;2023-02-28T03:11:53;98768.34;;;-6.95;75.22
19751;BME280;4663;49.120;9.730;2023-02-28T03:33:02;98758.63;;;-6.93;75.79
19751;BME280;4663;49.120;9.730;2023-02-28T03:35:37;98761.66;;;-7.29;76.67
19751;BME280;4663;49.120;9.730;2023-02-28T03:38:12;98749.94;;;-6.95;75.54
19751;BME280;4663;49.120;9.730;2023-02-28T03:40:43;98749.69;;;-6.89;75.67
19751;BME280;4663;49.120;9.730;2023-02-28T03:43:16;98753.66;;;-7.01;75.82
19751;BME280;4663;49.120;9.730;2023-02-28T03:45:43;98758.00;;;-7.25;75.95
19751;BME280;4663;49.120;9.730;2023-02-28T03:48:17;98760.13;;;-7.11;76.27
19751;BME280;4663;49.120;9.730;2023-02-28T03:50:47;98772.69;;;-7.19;76.17
19751;BME280;4663;49.120;9.730;2023-02-28T03:53:30;98756.53;;;-7.08;76.18
19751;BME280;4663;49.120;9.730;2023-02-28T03:56:19;98759.94;;;-7.05;75.88
19751;BME280;4663;49.120;9.730;2023-02-28T03:59:04;98768.53;;;-7.01;75.80
19751;BME280;4663;49.120;9.730;2023-02-28T04:04:01;98771.13;;;-7.25;76.20
19751;BME280;4663;49.120;9.730;2023-02-28T04:06:31;98773.75;;;-7.25;76.55
19751;BME280;4663;49.120;9.730;2023-02-28T04:08:57;98773.66;;;-7.22;75.87
19751;BME280;4663;49.120;9.730;2023-02-28T04:14:03;98772.63;;;-7.18;76.66
19751;BME280;4663;49.120;9.730;2023-02-28T04:16:30;98782.34;;;-7.20;76.21
19751;BME280;4663;49.120;9.730;2023-02-28T04:18:56;98779.69;;;-7.44;76.84
19751;BME280;4663;49.120;9.730;2023-02-28T04:21:31;98787.69;;;-7.23;77.00
19751;BME280;4663;49.120;9.730;2023-02-28T04:23:57;98779.72;;;-7.20;75.94
19751;BME280;4663;49.120;9.730;2023-02-28T04:26:28;98771.28;;;-7.04;75.86
19751;BME280;4663;49.120;9.730;2023-02-28T04:28:53;98775.03;;;-6.86;75.98
19751;BME280;4663;49.120;9.730;2023-02-28T04:31:19;98773.00;;;-7.03;75.65
19751;BME280;4663;49.120;9.730;2023-02-28T04:33:44;98772.00;;;-6.75;75.08
19751;BME280;4663;49.120;9.730;2023-02-28T04:36:09;98780.28;;;-6.86;75.22
19751;BME280;4663;49.120;9.730;2023-02-28T04:38:36;98766.28;;;-6.63;74.95
19751;BME280;4663;49.120;9.730;2023-02-28T04:41:02;98772.66;;;-6.70;75.06
19751;BME280;4663;49.120;9.730;2023-02-28T04:43:29;98772.16;;;-6.56;74.54
19751;BME280;4663;49.120;9.730;2023-02-28T04:45:55;98776.97;;;-6.45;74.72
19751;BME280;4663;49.120;9.730;2023-02-28T04:48:26;98782.72;;;-6.57;74.86
19751;BME280;4663;49.120;9.730;2023-02-28T04:50:52;98777.81;;;-6.67;75.03
19751;BME280;4663;49.120;9.730;2023-02-28T04:53:18;98785.56;;;-7.11;75.59
19751;BME280;4663;49.120;9.730;2023-02-28T04:55:44;98783.50;;;-7.03;75.47
19751;BME280;4663;49.120;9.730;2023-02-28T04:58:09;98780.28;;;-6.62;75.68
19751;BME280;4663;49.120;9.730;2023-02-28T05:00:35;98786.16;;;-6.79;74.99
19751;BME280;4663;49.120;9.730;2023-02-28T05:03:00;98791.16;;;-6.73;75.26
19751;BME280;4663;49.120;9.730;2023-02-28T05:05:26;98790.91;;;-6.89;75.80
19751;BME280;4663;49.120;9.730;2023-02-28T05:07:51;98784.56;;;-6.83;75.33
19751;BME280;4663;49.120;9.730;2023-02-28T05:10:19;98793.22;;;-6.81;75.56
19751;BME280;4663;49.120;9.730;2023-02-28T05:12:44;98787.28;;;-6.86;75.26
19751;BME280;4663;49.120;9.730;2023-02-28T05:15:12;98781.47;;;-6.95;75.63
19751;BME280;4663;49.120;9.730;2023-02-28T05:17:38;98795.38;;;-6.93;75.56
19751;BME280;4663;49.120;9.730;2023-02-28T05:20:04;98792.63;;;-7.14;76.46
19751;BME280;4663;49.120;9.730;2023-02-28T05:22:30;98790.78;;;-6.86;75.36
19751;BME280;4663;49.120;9.730;2023-02-28T05:24:55;98787.13;;;-7.06;75.40
19751;BME280;4663;49.120;9.730;2023-02-28T05:27:21;98792.06;;;-6.98;75.20
19751;BME280;4663;49.120;9.730;2023-02-28T05:29:46;98796.94;;;-7.13;75.94
19751;BME280;4663;49.120;9.730;2023-02-28T05:32:12;98804.97;;;-7.16;75.80
19751;BME280;4663;49.120;9.730;2023-02-28T05:34:38;98799.81;;;-7.19;76.16
19751;BME280;4663;49.120;9.730;2023-02-28T05:37:05;98793.16;;;-7.04;75.96
19751;BME280;4663;49.120;9.730;2023-02-28T05:39:32;98793.53;;;-7.40;76.12
19751;BME280;4663;49.120;9.730;2023-02-28T05:41:58;98782.41;;;-7.21;76.09
19751;BME280;4663;49.120;9.730;2023-02-28T05:44:23;98788.81;;;-7.05;76.13
19751;BME280;4663;49.120;9.730;2023-02-28T05:46:49;98791.22;;;-7.24;75.70
19751;BME280;4663;49.120;9.730;2023-02-28T05:49:14;98795.63;;;-7.24;76.22
19751;BME280;4663;49.120;9.730;2023-02-28T05:51:40;98800.34;;;-7.09;75.85
19751;BME280;4663;49.120;9.730;2023-02-28T05:54:06;98795.25;;;-7.14;75.98
19751;BME280;4663;49.120;9.730;2023-02-28T05:56:32;98790.28;;;-7.21;76.80
19751;BME280;4663;49.120;9.730;2023-02-28T05:58:59;98798.22;;;-7.23;77.13
19751;BME280;4663;49.120;9.730;2023-02-28T06:03:56;98807.25;;;-7.59;77.83
19751;BME280;4663;49.120;9.730;2023-02-28T06:06:21;98807.91;;;-7.52;77.50
19751;BME280;4663;49.120;9.730;2023-02-28T06:08:47;98807.13;;;-7.54;77.71
19751;BME280;4663;49.120;9.730;2023-02-28T06:11:12;98805.16;;;-7.47;77.55
19751;BME280;4663;49.120;9.730;2023-02-28T06:13:38;98804.22;;;-7.46;77.21
19751;BME280;4663;49.120;9.730;2023-02-28T06:16:04;98808.22;;;-7.34;76.96
19751;BME280;4663;49.120;9.730;2023-02-28T06:18:29;98808.13;;;-7.58;76.61
19751;BME280;4663;49.120;9.730;2023-02-28T06:20:55;98812.13;;;-7.21;76.86
19751;BME280;4663;49.120;9.730;2023-02-28T06:23:21;98797.88;;;-7.39;76.62
19751;BME280;4663;49.120;9.730;2023-02-28T06:25:47;98819.03;;;-7.44;77.68
19751;BME280;4663;49.120;9.730;2023-02-28T06:28:12;98820.91;;;-7.22;76.87
19751;BME280;4663;49.120;9.730;2023-02-28T06:30:38;98809.34;;;-7.16;76.76
19751;BME280;4663;49.120;9.730;2023-02-28T06:33:04;98815.81;;;-7.27;77.11
19751;BME280;4663;49.120;9.730;2023-02-28T06:35:29;98815.66;;;-7.22;76.55
19751;BME280;4663;49.120;9.730;2023-02-28T06:37:55;98818.13;;;-7.17;76.35
19751;BME280;4663;49.120;9.730;2023-02-28T06:40:20;98823.63;;;-7.25;76.65
19751;BME280;4663;49.120;9.730;2023-02-28T06:42:46;98817.91;;;-7.36;77.74
19751;BME280;4663;49.120;9.730;2023-02-28T06:45:11;98823.19;;;-7.38;77.69
19751;BME280;4663;49.120;9.730;2023-02-28T06:47:39;98822.53;;;-7.18;76.90
19751;BME280;4663;49.120;9.730;2023-02-28T06:50:06;98816.94;;;-7.08;77.21
19751;BME280;4663;49.120;9.730;2023-02-28T06:52:32;98825.28;;;-6.97;76.95
19751;BME280;4663;49.120;9.730;2023-02-28T06:54:57;98818.22;;;-6.95;76.28
19751;BME280;4663;49.120;9.730;2023-02-28T06:57:30;98816.09;;;-6.83;75.63
19751;BME280;4663;49.120;9.730;2023-02-28T06:59:58;98819.19;;;-6.97;75.97
19751;BME280;4663;49.120;9.730;2023-02-28T07:02:23;98831.53;;;-6.99;76.42
19751;BME280;4663;49.120;9.730;2023-02-28T07:04:49;98828.50;;;-6.89;75.97
19751;BME280;4663;49.120;9.730;2023-02-28T07:07:14;98834.72;;;-6.91;75.84
19751;BME280;4663;49.120;9.730;2023-02-28T07:09:39;98838.59;;;-7.02;76.87
19751;BME280;4663;49.120;9.730;2023-02-28T07:12:05;98834.03;;;-6.71;76.26
19751;BME280;4663;49.120;9.730;2023-02-28T07:14:30;98832.88;;;-6.64;75.42
19751;BME280;4663;49.120;9.730;2023-02-28T07:16:56;98830.75;;;-6.78;74.99
19751;BME280;4663;49.120;9.730;2023-02-28T07:19:21;98840.41;;;-6.54;74.86
19751;BME280;4663;49.120;9.730;2023-02-28T07:21:46;98845.56;;;-6.27;73.74
19751;BME280;4663;49.120;9.730;2023-02-28T07:24:12;98849.22;;;-6.31;74.40
19751;BME280;4663;49.120;9.730;2023-02-28T07:26:37;98844.91;;;-6.10;73.81
19751;BME280;4663;49.120;9.730;2023-02-28T07:29:03;98851.66;;;-6.27;73.77
19751;BME280;4663;49.120;9.730;2023-02-28T07:31:28;98855.59;;;-6.15;73.92
19751;BME280;4663;49.120;9.730;2023-02-28T07:33:53;98851.94;;;-6.11;73.41
19751;BME280;4663;49.120;9.730;2023-02-28T07:36:19;98855.59;;;-6.15;73.51
19751;BME280;4663;49.120;9.730;2023-02-28T07:38:46;98852.38;;;-5.99;73.02
19751;BME280;4663;49.120;9.730;2023-02-28T07:41:21;98859.34;;;-5.98;73.09
19751;BME280;4663;49.120;9.730;2023-02-28T07:43:47;98854.78;;;-6.17;73.43
19751;BME280;4663;49.120;9.730;2023-02-28T07:46:14;98848.69;;;-5.50;72.55
19751;BME280;4663;49.120;9.730;2023-02-28T07:48:40;98854.66;;;-5.90;72.92
19751;BME280;4663;49.120;9.730;2023-02-28T07:51:06;98851.72;;;-5.60;72.18
19751;BME280;4663;49.120;9.730;2023-02-28T07:53:32;98848.00;;;-5.12;71.33
19751;BME280;4663;49.120;9.730;2023-02-28T07:55:59;98854.25;;;-4.94;70.49
19751;BME280;4663;49.120;9.730;2023-02-28T07:58:26;98850.09;;;-5.41;70.75
19751;BME280;4663;49.120;9.730;2023-02-28T08:00:52;98850.97;;;-4.99;71.01
19751;BME280;4663;49.120;9.730;2023-02-28T08:03:19;98842.03;;;-5.16;70.02
19751;BME280;4663;49.120;9.730;2023-02-28T08:05:44;98854.84;;;-5.72;71.15
19751;BME280;4663;49.120;9.730;2023-02-28T08:08:10;98846.88;;;-4.86;70.48
19751;BME280;4663;49.120;9.730;2023-02-28T08:10:35;98859.09;;;-4.83;70.21
19751;BME280;4663;49.120;9.730;2023-02-28T08:13:01;98847.81;;;-4.47;68.79
19751;BME280;4663;49.120;9.730;2023-02-28T08:15:26;98860.47;;;-4.95;69.09
19751;BME280;4663;49.120;9.730;2023-02-28T08:17:52;98855.09;;;-4.33;68.74
19751;BME280;4663;49.120;9.730;2023-02-28T08:20:17;98844.41;;;-4.30;67.50
19751;BME280;4663;49.120;9.730;2023-02-28T08:22:43;98848.66;;;-3.88;67.05
19751;BME280;4663;49.120;9.730;2023-02-28T08:25:08;98851.53;;;-4.12;67.61
19751;BME280;4663;49.120;9.730;2023-02-28T08:27:35;98845.53;;;-3.78;67.19
19751;BME280;4663;49.120;9.730;2023-02-28T08:30:00;98840.28;;;-3.24;66.18
19751;BME280;4663;49.120;9.730;2023-02-28T08:32:25;98836.72;;;-3.06;65.68
19751;BME280;4663;49.120;9.730;2023-02-28T08:34:51;98840.66;;;-3.87;66.26
19751;BME280;4663;49.120;9.730;2023-02-28T08:37:16;98846.34;;;-3.77;66.00
19751;BME280;4663;49.120;9.730;2023-02-28T08:39:42;98852.38;;;-3.73;66.96
19751;BME280;4663;49.120;9.730;2023-02-28T08:42:07;98856.88;;;-3.95;66.66
19751;BME280;4663;49.120;9.730;2023-02-28T08:44:32;98850.53;;;-4.48;66.71
19751;BME280;4663;49.120;9.730;2023-02-28T08:46:58;98855.97;;;-4.13;66.28
19751;BME280;4663;49.120;9.730;2023-02-28T08:49:23;98836.84;;;-3.99;66.68
19751;BME280;4663;49.120;9.730;2023-02-28T08:51:48;98853.72;;;-4.22;66.85
19751;BME280;4663;49.120;9.730;2023-02-28T08:54:14;98840.25;;;-3.78;66.43
19751;BME280;4663;49.120;9.730;2023-02-28T08:56:45;98830.38;;;-3.56;65.31
19751;BME280;4663;49.120;9.730;2023-02-28T08:59:12;98829.22;;;-3.68;65.50
19751;BME280;4663;49.120;9.730;2023-02-28T09:01:37;98854.94;;;-3.72;65.74
19751;BME280;4663;49.120;9.730;2023-02-28T09:04:03;98829.75;;;-3.42;65.00
19751;BME280;4663;49.120;9.730;2023-02-28T09:06:28;98823.44;;;-3.04;63.69
19751;BME280;4663;49.120;9.730;2023-02-28T09:08:57;98838.56;;;-3.80;64.20
19751;BME280;4663;49.120;9.730;2023-02-28T09:11:27;98830.22;;;-2.49;64.18
19751;BME280;4663;49.120;9.730;2023-02-28T09:13:53;98823.75;;;-1.78;62.82
19751;BME280;4663;49.120;9.730;2023-02-28T09:16:20;98834.88;;;-2.20;62.55
19751;BME280;4663;49.120;9.730;2023-02-28T09:18:46;98826.59;;;-1.98;60.73
19751;BME280;4663;49.120;9.730;2023-02-28T09:21:15;98828.47;;;-3.00;62.33
19751;BME280;4663;49.120;9.730;2023-02-28T09:23:42;98817.84;;;-3.16;61.95
19751;BME280;4663;49.120;9.730;2023-02-28T09:26:11;98831.28;;;-3.20;62.73
19751;BME280;4663;49.120;9.730;2023-02-28T09:28:38;98826.16;;;-3.06;62.84
19751;BME280;4663;49.120;9.730;2023-02-28T09:31:03;98838.22;;;-2.66;62.29
19751;BME280;4663;49.120;9.730;2023-02-28T09:33:30;98823.41;;;-2.53;61.67
19751;BME280;4663;49.120;9.730;2023-02-28T09:36:00;98834.38;;;-2.94;61.82
19751;BME280;4663;49.120;9.730;2023-02-28T09:38:26;98841.69;;;-3.00;62.83
19751;BME280;4663;49.120;9.730;2023-02-28T09:40:56;98826.56;;;-2.80;61.85
19751;BME280;4663;49.120;9.730;2023-02-28T09:43:25;98830.66;;;-2.40;61.61
19751;BME280;4663;49.120;9.730;2023-02-28T09:45:59;98829.16;;;-2.12;60.82
19751;BME280;4663;49.120;9.730;2023-02-28T09:48:35;98845.44;;;-1.72;61.86
19751;BME280;4663;49.120;9.730;2023-02-28T09:51:05;98821.75;;;-2.21;59.65
19751;BME280;4663;49.120;9.730;2023-02-28T09:53:36;98813.91;;;-1.60;60.11
19751;BME280;4663;49.120;9.730;2023-02-28T09:59:13;98816.44;;;-2.21;60.32
19751;BME280;4663;49.120;9.730;2023-02-28T10:07:41;98834.25;;;-2.41;60.94
19751;BME280;4663;49.120;9.730;2023-02-28T10:10:06;98831.41;;;-2.54;61.19
19751;BME280;4663;49.120;9.730;2023-02-28T10:12:41;98836.47;;;-2.50;61.44
19751;BME280;4663;49.120;9.730;2023-02-28T10:15:14;98853.75;;;-2.10;60.98
19751;BME280;4663;49.120;9.730;2023-02-28T10:17:42;98841.97;;;-2.37;61.21
19751;BME280;4663;49.120;9.730;2023-02-28T10:20:15;98843.06;;;-2.25;61.16
19751;BME280;4663;49.120;9.730;2023-02-28T10:23:00;98833.16;;;-2.37;60.77
19751;BME280;4663;49.120;9.730;2023-02-28T10:25:34;98838.97;;;-2.64;61.45
19751;BME280;4663;49.120;9.730;2023-02-28T10:28:11;98842.94;;;-2.55;61.25
19751;BME280;4663;49.120;9.730;2023-02-28T10:30:40;98827.81;;;-2.03;60.61
19751;BME280;4663;49.120;9.730;2023-02-28T10:33:17;98839.19;;;-2.35;61.14
19751;BME280;4663;49.120;9.730;2023-02-28T10:35:43;98844.97;;;-2.27;61.02
19751;BME280;4663;49.120;9.730;2023-02-28T10:38:18;98859.47;;;-3.21;62.22
19751;BME280;4663;49.120;9.730;2023-02-28T10:40:44;98847.09;;;-2.17;60.98
19751;BME280;4663;49.120;9.730;2023-02-28T10:45:38;98833.91;;;-2.35;60.17
19751;BME280;4663;49.120;9.730;2023-02-28T10:48:30;98841.59;;;-2.46;60.86
19751;BME280;4663;49.120;9.730;2023-02-28T10:50:57;98858.06;;;-1.45;60.92
19751;BME280;4663;49.120;9.730;2023-02-28T11:03:46;98817.81;;;-1.82;58.69
19751;BME280;4663;49.120;9.730;2023-02-28T11:08:54;98823.59;;;-1.59;58.81
19751;BME280;4663;49.120;9.730;2023-02-28T11:11:22;98819.25;;;-1.76;58.74
19751;BME280;4663;49.120;9.730;2023-02-28T11:13:53;98823.38;;;-1.56;58.97
19751;BME280;4663;49.120;9.730;2023-02-28T11:16:20;98825.47;;;-1.00;58.33
19751;BME280;4663;49.120;9.730;2023-02-28T11:21:23;98833.19;;;-1.11;58.49
19751;BME280;4663;49.120;9.730;2023-02-28T11:23:52;98816.31;;;-1.25;58.23
19751;BME280;4663;49.120;9.730;2023-02-28T11:26:42;98810.00;;;-1.08;58.47
19751;BME280;4663;49.120;9.730;2023-02-28T11:34:35;98800.13;;;-0.60;57.18
19751;BME280;4663;49.120;9.730;2023-02-28T11:37:01;98795.00;;;-0.78;57.49
19751;BME280;4663;49.120;9.730;2023-02-28T11:39:31;98798.34;;;-1.20;57.66
19751;BME280;4663;49.120;9.730;2023-02-28T11:52:57;98790.19;;;-1.16;58.16
19751;BME280;4663;49.120;9.730;2023-02-28T11:55:29;98800.69;;;-0.84;57.29
19751;BME280;4663;49.120;9.730;2023-02-28T12:03:28;98796.22;;;-1.43;57.28
19751;BME280;4663;49.120;9.730;2023-02-28T12:06:06;98799.75;;;-0.83;57.33
19751;BME280;4663;49.120;9.730;2023-02-28T12:20:08;98815.78;;;0.56;57.34
19751;BME280;4663;49.120;9.730;2023-02-28T12:28:19;98794.03;;;-0.19;56.67
19751;BME280;4663;49.120;9.730;2023-02-28T12:30:59;98796.31;;;-1.00;56.85
19751;BME280;4663;49.120;9.730;2023-02-28T12:33:31;98811.50;;;-0.58;57.95
19751;BME280;4663;49.120;9.730;2023-02-28T12:36:02;98804.22;;;-1.14;57.65
19751;BME280;4663;49.120;9.730;2023-02-28T12:41:04;98782.50;;;-0.90;57.10
19751;BME280;4663;49.120;9.730;2023-02-28T12:43:38;98792.59;;;-0.97;57.55
19751;BME280;4663;49.120;9.730;2023-02-28T12:48:44;98776.53;;;-0.65;57.10
19751;BME280;4663;49.120;9.730;2023-02-28T12:51:12;98781.81;;;-0.94;57.28
19751;BME280;4663;49.120;9.730;2023-02-28T12:56:44;98783.19;;;-0.58;57.75
19751;BME280;4663;49.120;9.730;2023-02-28T12:59:22;98784.88;;;-0.86;58.00
19751;BME280;4663;49.120;9.730;2023-02-28T13:10:24;98787.91;;;-0.48;57.84
19751;BME280;4663;49.120;9.730;2023-02-28T13:12:53;98780.28;;;-0.25;57.38
19751;BME280;4663;49.120;9.730;2023-02-28T13:15:23;98780.56;;;-0.30;57.92
19751;BME280;4663;49.120;9.730;2023-02-28T13:17:52;98755.41;;;0.18;57.05
19751;BME280;4663;49.120;9.730;2023-02-28T13:20:31;98753.13;;;-0.44;56.91
19751;BME280;4663;49.120;9.730;2023-02-28T13:22:59;98772.25;;;-0.38;57.94
19751;BME280;4663;49.120;9.730;2023-02-28T13:28:11;98784.00;;;-0.00;57.69
19751;BME280;4663;49.120;9.730;2023-02-28T13:33:33;98774.81;;;-0.37;57.64
19751;BME280;4663;49.120;9.730;2023-02-28T13:36:09;98773.97;;;-0.66;58.07
19751;BME280;4663;49.120;9.730;2023-02-28T13:38:46;98766.94;;;-0.53;57.91
19751;BME280;4663;49.120;9.730;2023-02-28T13:44:16;98775.59;;;-0.93;58.25
19751;BME280;4663;49.120;9.730;2023-02-28T13:51:49;98769.53;;;-0.66;58.02
19751;BME280;4663;49.120;9.730;2023-02-28T13:57:17;98776.91;;;-0.42;58.37
19751;BME280;4663;49.120;9.730;2023-02-28T14:05:21;98766.41;;;-0.44;58.00
19751;BME280;4663;49.120;9.730;2023-02-28T14:07:53;98777.38;;;-0.35;58.08
19751;BME280;4663;49.120;9.730;2023-02-28T14:10:31;98773.59;;;-0.60;58.09
19751;BME280;4663;49.120;9.730;2023-02-28T14:15:57;98766.88;;;-0.09;57.81
19751;BME280;4663;49.120;9.730;2023-02-28T14:18:33;98776.31;;;0.09;58.40
19751;BME280;4663;49.120;9.730;2023-02-28T14:34:44;98752.78;;;-0.96;57.73
19751;BME280;4663;49.120;9.730;2023-02-28T14:37:19;98765.41;;;-1.01;57.54
19751;BME280;4663;49.120;9.730;2023-02-28T14:39:46;98750.63;;;-1.05;57.40
19751;BME280;4663;49.120;9.730;2023-02-28T14:42:38;98750.69;;;-0.90;57.89
19751;BME280;4663;49.120;9.730;2023-02-28T14:45:18;98755.59;;;-0.70;57.21
19751;BME280;4663;49.120;9.730;2023-02-28T14:47:44;98760.53;;;-0.78;57.64
19751;BME280;4663;49.120;9.730;2023-02-28T14:50:18;98755.03;;;-0.89;57.17
19751;BME280;4663;49.120;9.730;2023-02-28T14:52:45;98748.03;;;-0.76;56.96
19751;BME280;4663;49.120;9.730;2023-02-28T14:55:14;98760.22;;;-0.59;57.39
19751;BME280;4663;49.120;9.730;2023-02-28T14:57:49;98761.84;;;-0.85;57.17
19751;BME280;4663;49.120;9.730;2023-02-28T15:02:46;98777.03;;;-0.87;57.97
19751;BME280;4663;49.120;9.730;2023-02-28T15:07:38;98773.94;;;-1.10;57.56
19751;BME280;4663;49.120;9.730;2023-02-28T15:10:20;98761.94;;;-0.87;57.01
19751;BME280;4663;49.120;9.730;2023-02-28T15:12:54;98772.34;;;-0.55;56.97
19751;BME280;4663;49.120;9.730;2023-02-28T15:15:59;98763.28;;;-0.65;56.78
19751;BME280;4663;49.120;9.730;2023-02-28T15:21:05;98766.59;;;-0.90;57.71
19751;BME280;4663;49.120;9.730;2023-02-28T15:23:32;98772.44;;;-1.00;57.55
19751;BME280;4663;49.120;9.730;2023-02-28T15:25:58;98757.47;;;-1.01;56.78
19751;BME280;4663;49.120;9.730;2023-02-28T15:28:24;98758.59;;;-1.05;56.99
19751;BME280;4663;49.120;9.730;2023-02-28T15:30:54;98761.41;;;-0.77;57.23
19751;BME280;4663;49.120;9.730;2023-02-28T15:33:28;98764.81;;;-1.21;57.92
19751;BME280;4663;49.120;9.730;2023-02-28T15:36:24;98769.78;;;-1.00;57.71
19751;BME280;4663;49.120;9.730;2023-02-28T15:38:53;98760.63;;;-0.79;56.83
19751;BME280;4663;49.120;9.730;2023-02-28T15:41:28;98768.75;;;-0.83;57.53
19751;BME280;4663;49.120;9.730;2023-02-28T15:44:14;98772.00;;;-0.77;57.46
19751;BME280;4663;49.120;9.730;2023-02-28T15:46:55;98766.13;;;-0.53;57.24
19751;BME280;4663;49.120;9.730;2023-02-28T15:49:22;98764.03;;;-0.63;57.10
19751;BME280;4663;49.120;9.730;2023-02-28T15:51:50;98759.97;;;-0.83;57.61
19751;BME280;4663;49.120;9.730;2023-02-28T15:54:24;98767.97;;;-0.99;57.38
19751;BME280;4663;49.120;9.730;2023-02-28T15:56:55;98755.00;;;-1.04;57.16
19751;BME280;4663;49.120;9.730;2023-02-28T15:59:27;98766.59;;;-0.90;57.29
19751;BME280;4663;49.120;9.730;2023-02-28T16:07:24;98771.84;;;-1.05;57.54
19751;BME280;4663;49.120;9.730;2023-02-28T16:09:50;98776.97;;;-1.02;57.72
19751;BME280;4663;49.120;9.730;2023-02-28T16:12:15;98776.44;;;-0.92;57.77
19751;BME280;4663;49.120;9.730;2023-02-28T16:14:41;98772.94;;;-0.64;57.02
19751;BME280;4663;49.120;9.730;2023-02-28T16:17:17;98771.13;;;-0.92;56.92
19751;BME280;4663;49.120;9.730;2023-02-28T16:19:44;98785.72;;;-0.85;58.13
19751;BME280;4663;49.120;9.730;2023-02-28T16:22:09;98769.50;;;-1.10;57.47
19751;BME280;4663;49.120;9.730;2023-02-28T16:24:35;98773.88;;;-0.94;57.73
19751;BME280;4663;49.120;9.730;2023-02-28T16:27:00;98781.31;;;-1.01;58.26